Fukushima Airport
RJSF : now visible

Airfield :











YOU CAN JOIN US ON...

 
LOGIN :

Register | Disclaimer

   EN    FR    IT 

 









Legend :    VFR   Marginal VFR   IFR   Intensive IFR   Very Intensive IFR
Visi :
Ceiling :
>= 8 km
>= 3000ft
5 to 8 km
1000 to 3000 ft
1500m to 5 km
500 to 1000 ft
800 to 1500m
200 to 500 ft
< 800m
< 200 ft
Symbols :   Thunderstorms  Fog  Heavy snow  Heavy precipitations  Wind > 20 kt






- Airport Elevation : 1221 ft
- IATA code : FKS


RJSF - Fukushima

CURRENT METAR :
  • 310200Z 20008KT 150V250 9999 FEW020 SCT025 BKN/// 22/22 Q1019

EXPIRED METARs :
  • 310100Z 18008KT 150V230 9999 FEW015 BKN020 BKN025 21/21 Q1020
  • 310000Z 18006KT 160V230 9999 FEW012 SCT015 BKN/// 20/20 Q1020

TAF TAF RJSF
Valid from the 31 at 00:00 until the 01 at 06:00 UTC


302305Z 3100/0106 19010KT 9999 FEW030 SCT050
RJJJ FIR / Asia



MET'MAP, your aeronautical weather chart ! - Copyright ORBIFLY December 2007 - Disclaimer

ORBIFLY MET'MAP TEAM :

Programming & Development : Alexandra Zaïnal
Concept & original design : Baudouin d'Aumeries
Assistance for programming : Marc-Olivier Méhu
Technical & hardware support : Manuel Goepfert

Contact : metmap@orbifly.com




SOURCES & CREDITS :

   NOAA       Earth
Advisory